sensor_id;sensor_type;location;lat;lon;timestamp;P1;durP1;ratioP1;P2;durP2;ratioP2
19131;SDS011;9698;51.976;7.570;2023-12-07T00:00:29;18.40;;;13.47;;
19131;SDS011;9698;51.976;7.570;2023-12-07T00:02:58;16.87;;;12.50;;
19131;SDS011;9698;51.976;7.570;2023-12-07T00:05:26;18.87;;;13.87;;
19131;SDS011;9698;51.976;7.570;2023-12-07T00:07:54;17.13;;;12.57;;
19131;SDS011;9698;51.976;7.570;2023-12-07T00:10:22;16.20;;;12.93;;
19131;SDS011;9698;51.976;7.570;2023-12-07T00:12:50;15.43;;;12.33;;
19131;SDS011;9698;51.976;7.570;2023-12-07T00:15:18;17.23;;;12.30;;
19131;SDS011;9698;51.976;7.570;2023-12-07T00:17:45;15.33;;;12.17;;
19131;SDS011;9698;51.976;7.570;2023-12-07T00:20:13;15.27;;;12.77;;
19131;SDS011;9698;51.976;7.570;2023-12-07T00:22:41;16.53;;;11.97;;
19131;SDS011;9698;51.976;7.570;2023-12-07T00:25:09;16.47;;;13.57;;
19131;SDS011;9698;51.976;7.570;2023-12-07T00:27:37;16.77;;;12.57;;
19131;SDS011;9698;51.976;7.570;2023-12-07T00:30:06;18.53;;;13.50;;
19131;SDS011;9698;51.976;7.570;2023-12-07T00:32:35;16.03;;;12.43;;
19131;SDS011;9698;51.976;7.570;2023-12-07T00:35:04;17.80;;;13.23;;
19131;SDS011;9698;51.976;7.570;2023-12-07T00:37:34;15.43;;;11.70;;
19131;SDS011;9698;51.976;7.570;2023-12-07T00:40:02;16.80;;;12.33;;
19131;SDS011;9698;51.976;7.570;2023-12-07T00:42:31;16.47;;;12.90;;
19131;SDS011;9698;51.976;7.570;2023-12-07T00:45:00;14.33;;;11.63;;
19131;SDS011;9698;51.976;7.570;2023-12-07T00:47:28;15.47;;;13.03;;
19131;SDS011;9698;51.976;7.570;2023-12-07T00:49:56;16.67;;;13.40;;
19131;SDS011;9698;51.976;7.570;2023-12-07T00:52:24;14.90;;;12.23;;
19131;SDS011;9698;51.976;7.570;2023-12-07T00:54:54;16.53;;;12.67;;
19131;SDS011;9698;51.976;7.570;2023-12-07T00:57:36;14.93;;;12.37;;
19131;SDS011;9698;51.976;7.570;2023-12-07T01:00:05;17.50;;;13.30;;
19131;SDS011;9698;51.976;7.570;2023-12-07T01:02:34;19.93;;;13.50;;
19131;SDS011;9698;51.976;7.570;2023-12-07T01:05:02;18.63;;;13.07;;
19131;SDS011;9698;51.976;7.570;2023-12-07T01:07:31;16.77;;;13.10;;
19131;SDS011;9698;51.976;7.570;2023-12-07T01:09:59;17.57;;;13.03;;
19131;SDS011;9698;51.976;7.570;2023-12-07T01:12:27;17.57;;;12.53;;
19131;SDS011;9698;51.976;7.570;2023-12-07T01:14:55;18.57;;;13.63;;
19131;SDS011;9698;51.976;7.570;2023-12-07T01:17:23;18.77;;;14.07;;
19131;SDS011;9698;51.976;7.570;2023-12-07T01:19:50;18.53;;;14.47;;
19131;SDS011;9698;51.976;7.570;2023-12-07T01:22:18;18.10;;;13.80;;
19131;SDS011;9698;51.976;7.570;2023-12-07T01:24:46;18.53;;;13.70;;
19131;SDS011;9698;51.976;7.570;2023-12-07T01:27:15;17.03;;;13.33;;
19131;SDS011;9698;51.976;7.570;2023-12-07T01:29:42;18.43;;;13.27;;
19131;SDS011;9698;51.976;7.570;2023-12-07T01:32:10;16.00;;;12.57;;
19131;SDS011;9698;51.976;7.570;2023-12-07T01:34:38;18.13;;;13.67;;
19131;SDS011;9698;51.976;7.570;2023-12-07T01:37:06;16.50;;;12.93;;
19131;SDS011;9698;51.976;7.570;2023-12-07T01:39:34;16.50;;;13.67;;
19131;SDS011;9698;51.976;7.570;2023-12-07T01:42:02;19.33;;;13.20;;
19131;SDS011;9698;51.976;7.570;2023-12-07T01:44:30;17.20;;;12.90;;
19131;SDS011;9698;51.976;7.570;2023-12-07T01:46:58;18.53;;;14.53;;
19131;SDS011;9698;51.976;7.570;2023-12-07T01:49:26;16.80;;;13.13;;
19131;SDS011;9698;51.976;7.570;2023-12-07T01:51:54;19.60;;;14.40;;
19131;SDS011;9698;51.976;7.570;2023-12-07T01:54:24;17.70;;;13.50;;
19131;SDS011;9698;51.976;7.570;2023-12-07T01:56:51;18.90;;;13.87;;
19131;SDS011;9698;51.976;7.570;2023-12-07T01:59:19;21.17;;;14.50;;
19131;SDS011;9698;51.976;7.570;2023-12-07T02:01:47;18.17;;;14.10;;
19131;SDS011;9698;51.976;7.570;2023-12-07T02:04:16;20.27;;;13.80;;
19131;SDS011;9698;51.976;7.570;2023-12-07T02:06:44;20.20;;;14.10;;
19131;SDS011;9698;51.976;7.570;2023-12-07T02:09:12;18.27;;;14.03;;
19131;SDS011;9698;51.976;7.570;2023-12-07T02:11:40;18.30;;;13.20;;
19131;SDS011;9698;51.976;7.570;2023-12-07T02:14:07;20.13;;;14.20;;
19131;SDS011;9698;51.976;7.570;2023-12-07T02:16:36;18.03;;;13.53;;
19131;SDS011;9698;51.976;7.570;2023-12-07T02:19:12;19.17;;;13.90;;
19131;SDS011;9698;51.976;7.570;2023-12-07T02:21:52;19.90;;;13.80;;
19131;SDS011;9698;51.976;7.570;2023-12-07T02:24:27;19.43;;;14.40;;
19131;SDS011;9698;51.976;7.570;2023-12-07T02:26:59;19.30;;;14.17;;
19131;SDS011;9698;51.976;7.570;2023-12-07T02:29:27;18.33;;;14.07;;
19131;SDS011;9698;51.976;7.570;2023-12-07T02:31:55;18.93;;;14.47;;
19131;SDS011;9698;51.976;7.570;2023-12-07T02:34:23;20.53;;;14.40;;
19131;SDS011;9698;51.976;7.570;2023-12-07T02:36:52;24.10;;;14.67;;
19131;SDS011;9698;51.976;7.570;2023-12-07T02:39:23;20.03;;;14.50;;
19131;SDS011;9698;51.976;7.570;2023-12-07T02:41:51;19.27;;;14.57;;
19131;SDS011;9698;51.976;7.570;2023-12-07T02:44:20;22.83;;;15.17;;
19131;SDS011;9698;51.976;7.570;2023-12-07T02:46:48;21.50;;;14.90;;
19131;SDS011;9698;51.976;7.570;2023-12-07T02:49:16;20.97;;;15.07;;
19131;SDS011;9698;51.976;7.570;2023-12-07T02:51:44;21.63;;;14.93;;
19131;SDS011;9698;51.976;7.570;2023-12-07T02:54:12;19.80;;;14.20;;
19131;SDS011;9698;51.976;7.570;2023-12-07T02:56:39;22.30;;;15.13;;
19131;SDS011;9698;51.976;7.570;2023-12-07T02:59:07;19.70;;;14.73;;
19131;SDS011;9698;51.976;7.570;2023-12-07T03:01:35;19.63;;;15.03;;
19131;SDS011;9698;51.976;7.570;2023-12-07T03:04:03;20.20;;;14.67;;
19131;SDS011;9698;51.976;7.570;2023-12-07T03:06:31;18.70;;;14.23;;
19131;SDS011;9698;51.976;7.570;2023-12-07T03:08:58;20.17;;;15.07;;
19131;SDS011;9698;51.976;7.570;2023-12-07T03:11:26;19.17;;;14.50;;
19131;SDS011;9698;51.976;7.570;2023-12-07T03:13:54;22.73;;;15.27;;
19131;SDS011;9698;51.976;7.570;2023-12-07T03:16:25;18.87;;;14.20;;
19131;SDS011;9698;51.976;7.570;2023-12-07T03:18:52;19.40;;;14.53;;
19131;SDS011;9698;51.976;7.570;2023-12-07T03:21:20;18.77;;;14.83;;
19131;SDS011;9698;51.976;7.570;2023-12-07T03:23:47;20.47;;;15.07;;
19131;SDS011;9698;51.976;7.570;2023-12-07T03:26:16;21.33;;;15.73;;
19131;SDS011;9698;51.976;7.570;2023-12-07T03:28:43;21.03;;;15.53;;
19131;SDS011;9698;51.976;7.570;2023-12-07T03:31:11;21.80;;;16.23;;
19131;SDS011;9698;51.976;7.570;2023-12-07T03:33:39;21.50;;;15.60;;
19131;SDS011;9698;51.976;7.570;2023-12-07T03:36:11;19.73;;;14.73;;
19131;SDS011;9698;51.976;7.570;2023-12-07T03:38:39;20.73;;;15.47;;
19131;SDS011;9698;51.976;7.570;2023-12-07T03:41:06;20.13;;;15.23;;
19131;SDS011;9698;51.976;7.570;2023-12-07T03:43:34;23.57;;;16.43;;
19131;SDS011;9698;51.976;7.570;2023-12-07T03:46:04;22.77;;;15.93;;
19131;SDS011;9698;51.976;7.570;2023-12-07T03:48:32;24.63;;;17.00;;
19131;SDS011;9698;51.976;7.570;2023-12-07T03:51:03;23.20;;;16.53;;
19131;SDS011;9698;51.976;7.570;2023-12-07T03:53:32;22.00;;;16.40;;
19131;SDS011;9698;51.976;7.570;2023-12-07T03:56:00;24.97;;;16.70;;
19131;SDS011;9698;51.976;7.570;2023-12-07T03:58:27;24.33;;;15.97;;
19131;SDS011;9698;51.976;7.570;2023-12-07T04:00:55;24.57;;;17.00;;
19131;SDS011;9698;51.976;7.570;2023-12-07T04:03:23;23.67;;;16.73;;
19131;SDS011;9698;51.976;7.570;2023-12-07T04:05:51;20.90;;;16.30;;
19131;SDS011;9698;51.976;7.570;2023-12-07T04:08:19;23.13;;;16.50;;
19131;SDS011;9698;51.976;7.570;2023-12-07T04:10:47;26.23;;;17.07;;
19131;SDS011;9698;51.976;7.570;2023-12-07T04:13:15;23.67;;;17.33;;
19131;SDS011;9698;51.976;7.570;2023-12-07T04:15:43;24.10;;;16.87;;
19131;SDS011;9698;51.976;7.570;2023-12-07T04:18:12;21.20;;;15.57;;
19131;SDS011;9698;51.976;7.570;2023-12-07T04:20:40;23.60;;;16.03;;
19131;SDS011;9698;51.976;7.570;2023-12-07T04:23:07;21.70;;;16.70;;
19131;SDS011;9698;51.976;7.570;2023-12-07T04:25:35;23.27;;;16.50;;
19131;SDS011;9698;51.976;7.570;2023-12-07T04:28:03;20.17;;;14.97;;
19131;SDS011;9698;51.976;7.570;2023-12-07T04:30:31;22.70;;;16.77;;
19131;SDS011;9698;51.976;7.570;2023-12-07T04:32:59;23.77;;;16.17;;
19131;SDS011;9698;51.976;7.570;2023-12-07T04:35:27;22.80;;;16.60;;
19131;SDS011;9698;51.976;7.570;2023-12-07T04:37:56;24.17;;;16.10;;
19131;SDS011;9698;51.976;7.570;2023-12-07T04:40:24;27.10;;;16.97;;
19131;SDS011;9698;51.976;7.570;2023-12-07T04:42:52;20.13;;;15.17;;
19131;SDS011;9698;51.976;7.570;2023-12-07T04:45:20;21.27;;;15.33;;
19131;SDS011;9698;51.976;7.570;2023-12-07T04:47:48;21.27;;;15.43;;
19131;SDS011;9698;51.976;7.570;2023-12-07T04:50:16;23.87;;;15.83;;
19131;SDS011;9698;51.976;7.570;2023-12-07T04:52:43;27.87;;;16.27;;
19131;SDS011;9698;51.976;7.570;2023-12-07T04:55:11;21.27;;;15.33;;
19131;SDS011;9698;51.976;7.570;2023-12-07T04:57:39;23.93;;;15.37;;
19131;SDS011;9698;51.976;7.570;2023-12-07T05:00:08;22.53;;;14.60;;
19131;SDS011;9698;51.976;7.570;2023-12-07T05:02:37;24.07;;;16.00;;
19131;SDS011;9698;51.976;7.570;2023-12-07T05:05:06;19.70;;;14.80;;
19131;SDS011;9698;51.976;7.570;2023-12-07T05:07:35;20.90;;;14.63;;
19131;SDS011;9698;51.976;7.570;2023-12-07T05:10:04;22.30;;;15.83;;
19131;SDS011;9698;51.976;7.570;2023-12-07T05:12:32;22.53;;;15.23;;
19131;SDS011;9698;51.976;7.570;2023-12-07T05:15:00;21.17;;;14.67;;
19131;SDS011;9698;51.976;7.570;2023-12-07T05:17:29;23.07;;;15.87;;
19131;SDS011;9698;51.976;7.570;2023-12-07T05:19:57;23.00;;;14.67;;
19131;SDS011;9698;51.976;7.570;2023-12-07T05:22:24;20.47;;;14.47;;
19131;SDS011;9698;51.976;7.570;2023-12-07T05:24:53;19.83;;;14.73;;
19131;SDS011;9698;51.976;7.570;2023-12-07T05:27:22;20.93;;;14.03;;
19131;SDS011;9698;51.976;7.570;2023-12-07T05:29:50;19.93;;;14.73;;
19131;SDS011;9698;51.976;7.570;2023-12-07T05:32:18;22.20;;;13.97;;
19131;SDS011;9698;51.976;7.570;2023-12-07T05:34:45;18.30;;;13.70;;
19131;SDS011;9698;51.976;7.570;2023-12-07T05:37:13;20.33;;;14.03;;
19131;SDS011;9698;51.976;7.570;2023-12-07T05:39:41;22.33;;;14.40;;
19131;SDS011;9698;51.976;7.570;2023-12-07T05:42:09;22.23;;;15.57;;
19131;SDS011;9698;51.976;7.570;2023-12-07T05:44:37;20.63;;;14.57;;
19131;SDS011;9698;51.976;7.570;2023-12-07T05:47:05;18.83;;;13.43;;
19131;SDS011;9698;51.976;7.570;2023-12-07T05:49:34;21.17;;;14.90;;
19131;SDS011;9698;51.976;7.570;2023-12-07T05:52:02;21.20;;;14.67;;
19131;SDS011;9698;51.976;7.570;2023-12-07T05:54:29;22.43;;;15.60;;
19131;SDS011;9698;51.976;7.570;2023-12-07T05:56:57;20.80;;;14.57;;
19131;SDS011;9698;51.976;7.570;2023-12-07T05:59:26;21.80;;;14.37;;
19131;SDS011;9698;51.976;7.570;2023-12-07T06:01:53;19.03;;;13.47;;
19131;SDS011;9698;51.976;7.570;2023-12-07T06:04:21;24.97;;;14.37;;
19131;SDS011;9698;51.976;7.570;2023-12-07T06:06:49;22.07;;;15.13;;
19131;SDS011;9698;51.976;7.570;2023-12-07T06:09:17;21.93;;;14.70;;
19131;SDS011;9698;51.976;7.570;2023-12-07T06:11:45;19.03;;;14.07;;
19131;SDS011;9698;51.976;7.570;2023-12-07T06:14:13;21.10;;;15.37;;
19131;SDS011;9698;51.976;7.570;2023-12-07T06:16:41;18.87;;;13.67;;
19131;SDS011;9698;51.976;7.570;2023-12-07T06:19:08;19.70;;;14.53;;
19131;SDS011;9698;51.976;7.570;2023-12-07T06:21:36;20.47;;;14.47;;
19131;SDS011;9698;51.976;7.570;2023-12-07T06:24:05;20.67;;;14.13;;
19131;SDS011;9698;51.976;7.570;2023-12-07T06:26:33;19.90;;;14.33;;
19131;SDS011;9698;51.976;7.570;2023-12-07T06:29:01;19.33;;;14.00;;
19131;SDS011;9698;51.976;7.570;2023-12-07T06:31:28;20.10;;;13.40;;
19131;SDS011;9698;51.976;7.570;2023-12-07T06:33:56;17.03;;;12.37;;
19131;SDS011;9698;51.976;7.570;2023-12-07T06:36:26;22.13;;;13.33;;
19131;SDS011;9698;51.976;7.570;2023-12-07T06:38:54;18.03;;;12.90;;
19131;SDS011;9698;51.976;7.570;2023-12-07T06:41:22;19.03;;;12.90;;
19131;SDS011;9698;51.976;7.570;2023-12-07T06:43:49;16.40;;;12.33;;
19131;SDS011;9698;51.976;7.570;2023-12-07T06:46:18;17.23;;;12.67;;
19131;SDS011;9698;51.976;7.570;2023-12-07T06:48:45;17.13;;;13.07;;
19131;SDS011;9698;51.976;7.570;2023-12-07T06:51:13;20.90;;;13.13;;
19131;SDS011;9698;51.976;7.570;2023-12-07T06:53:41;21.13;;;13.13;;
19131;SDS011;9698;51.976;7.570;2023-12-07T06:56:09;17.63;;;13.23;;
19131;SDS011;9698;51.976;7.570;2023-12-07T06:58:37;21.20;;;13.80;;
19131;SDS011;9698;51.976;7.570;2023-12-07T07:01:05;21.57;;;13.93;;
19131;SDS011;9698;51.976;7.570;2023-12-07T07:03:33;22.73;;;14.80;;
19131;SDS011;9698;51.976;7.570;2023-12-07T07:06:01;19.80;;;14.13;;
19131;SDS011;9698;51.976;7.570;2023-12-07T07:08:29;21.43;;;14.20;;
19131;SDS011;9698;51.976;7.570;2023-12-07T07:10:57;24.97;;;14.10;;
19131;SDS011;9698;51.976;7.570;2023-12-07T07:13:24;25.60;;;15.63;;
19131;SDS011;9698;51.976;7.570;2023-12-07T07:15:52;23.30;;;14.70;;
19131;SDS011;9698;51.976;7.570;2023-12-07T07:18:21;24.83;;;15.20;;
19131;SDS011;9698;51.976;7.570;2023-12-07T07:20:50;22.67;;;14.47;;
19131;SDS011;9698;51.976;7.570;2023-12-07T07:23:18;24.90;;;15.07;;
19131;SDS011;9698;51.976;7.570;2023-12-07T07:25:45;29.27;;;15.53;;
19131;SDS011;9698;51.976;7.570;2023-12-07T07:28:13;30.27;;;16.30;;
19131;SDS011;9698;51.976;7.570;2023-12-07T07:30:41;35.93;;;17.73;;
19131;SDS011;9698;51.976;7.570;2023-12-07T07:33:09;31.30;;;17.40;;
19131;SDS011;9698;51.976;7.570;2023-12-07T07:35:36;35.53;;;18.10;;
19131;SDS011;9698;51.976;7.570;2023-12-07T07:38:04;29.37;;;17.10;;
19131;SDS011;9698;51.976;7.570;2023-12-07T07:40:32;28.30;;;16.90;;
19131;SDS011;9698;51.976;7.570;2023-12-07T07:42:59;35.50;;;17.93;;
19131;SDS011;9698;51.976;7.570;2023-12-07T07:45:27;29.77;;;16.40;;
19131;SDS011;9698;51.976;7.570;2023-12-07T07:47:55;33.97;;;18.13;;
19131;SDS011;9698;51.976;7.570;2023-12-07T07:50:23;33.33;;;17.43;;
19131;SDS011;9698;51.976;7.570;2023-12-07T07:52:51;35.43;;;17.20;;
19131;SDS011;9698;51.976;7.570;2023-12-07T07:55:18;33.07;;;17.33;;
19131;SDS011;9698;51.976;7.570;2023-12-07T07:57:46;36.63;;;17.80;;
19131;SDS011;9698;51.976;7.570;2023-12-07T08:00:14;42.40;;;18.63;;
19131;SDS011;9698;51.976;7.570;2023-12-07T08:02:45;37.53;;;17.27;;
19131;SDS011;9698;51.976;7.570;2023-12-07T08:05:14;40.83;;;18.47;;
19131;SDS011;9698;51.976;7.570;2023-12-07T08:07:41;38.07;;;18.07;;
19131;SDS011;9698;51.976;7.570;2023-12-07T08:10:09;44.00;;;19.17;;
19131;SDS011;9698;51.976;7.570;2023-12-07T08:12:39;42.30;;;18.30;;
19131;SDS011;9698;51.976;7.570;2023-12-07T08:15:08;39.97;;;18.00;;
19131;SDS011;9698;51.976;7.570;2023-12-07T08:17:37;37.80;;;17.63;;
19131;SDS011;9698;51.976;7.570;2023-12-07T08:20:07;47.30;;;19.73;;
19131;SDS011;9698;51.976;7.570;2023-12-07T08:22:36;45.03;;;18.50;;
19131;SDS011;9698;51.976;7.570;2023-12-07T08:25:06;38.17;;;17.87;;
19131;SDS011;9698;51.976;7.570;2023-12-07T08:27:38;39.57;;;18.37;;
19131;SDS011;9698;51.976;7.570;2023-12-07T08:30:07;38.90;;;18.60;;
19131;SDS011;9698;51.976;7.570;2023-12-07T08:32:35;44.97;;;20.47;;
19131;SDS011;9698;51.976;7.570;2023-12-07T08:35:04;49.93;;;21.23;;
19131;SDS011;9698;51.976;7.570;2023-12-07T08:37:33;45.33;;;19.73;;
19131;SDS011;9698;51.976;7.570;2023-12-07T08:40:00;49.40;;;21.63;;
19131;SDS011;9698;51.976;7.570;2023-12-07T08:42:29;44.03;;;19.83;;
19131;SDS011;9698;51.976;7.570;2023-12-07T08:44:58;51.23;;;22.63;;
19131;SDS011;9698;51.976;7.570;2023-12-07T08:47:25;47.43;;;21.47;;
19131;SDS011;9698;51.976;7.570;2023-12-07T08:49:56;49.57;;;23.20;;
19131;SDS011;9698;51.976;7.570;2023-12-07T08:52:24;55.87;;;21.67;;
19131;SDS011;9698;51.976;7.570;2023-12-07T08:55:08;42.63;;;21.00;;
19131;SDS011;9698;51.976;7.570;2023-12-07T08:57:36;49.90;;;21.97;;
19131;SDS011;9698;51.976;7.570;2023-12-07T09:00:05;46.80;;;22.03;;
19131;SDS011;9698;51.976;7.570;2023-12-07T09:02:34;46.80;;;21.77;;
19131;SDS011;9698;51.976;7.570;2023-12-07T09:05:13;51.03;;;22.87;;
19131;SDS011;9698;51.976;7.570;2023-12-07T09:07:41;43.07;;;22.20;;
19131;SDS011;9698;51.976;7.570;2023-12-07T09:10:10;40.73;;;20.87;;
19131;SDS011;9698;51.976;7.570;2023-12-07T09:12:38;49.03;;;22.30;;
19131;SDS011;9698;51.976;7.570;2023-12-07T09:15:07;42.97;;;21.60;;
19131;SDS011;9698;51.976;7.570;2023-12-07T09:17:36;42.27;;;21.13;;
19131;SDS011;9698;51.976;7.570;2023-12-07T09:20:06;44.90;;;21.97;;
19131;SDS011;9698;51.976;7.570;2023-12-07T09:22:39;39.83;;;21.20;;
19131;SDS011;9698;51.976;7.570;2023-12-07T09:25:09;38.63;;;20.37;;
19131;SDS011;9698;51.976;7.570;2023-12-07T09:27:37;43.63;;;22.67;;
19131;SDS011;9698;51.976;7.570;2023-12-07T09:30:06;42.53;;;21.13;;
19131;SDS011;9698;51.976;7.570;2023-12-07T09:32:37;36.83;;;19.97;;
19131;SDS011;9698;51.976;7.570;2023-12-07T09:35:06;37.00;;;20.03;;
19131;SDS011;9698;51.976;7.570;2023-12-07T09:37:41;34.13;;;18.63;;
19131;SDS011;9698;51.976;7.570;2023-12-07T09:40:10;39.27;;;20.10;;
19131;SDS011;9698;51.976;7.570;2023-12-07T09:42:43;36.97;;;19.87;;
19131;SDS011;9698;51.976;7.570;2023-12-07T09:45:11;37.73;;;21.10;;
19131;SDS011;9698;51.976;7.570;2023-12-07T09:47:43;37.60;;;20.80;;
19131;SDS011;9698;51.976;7.570;2023-12-07T09:50:16;40.27;;;21.77;;
19131;SDS011;9698;51.976;7.570;2023-12-07T09:52:44;42.47;;;21.87;;
19131;SDS011;9698;51.976;7.570;2023-12-07T09:55:27;45.53;;;22.23;;
19131;SDS011;9698;51.976;7.570;2023-12-07T09:57:55;41.60;;;22.63;;
19131;SDS011;9698;51.976;7.570;2023-12-07T10:00:24;42.10;;;23.37;;
19131;SDS011;9698;51.976;7.570;2023-12-07T10:02:52;43.17;;;22.17;;
19131;SDS011;9698;51.976;7.570;2023-12-07T10:05:21;47.60;;;24.40;;
19131;SDS011;9698;51.976;7.570;2023-12-07T10:07:50;41.17;;;21.70;;
19131;SDS011;9698;51.976;7.570;2023-12-07T10:10:18;46.63;;;23.63;;
19131;SDS011;9698;51.976;7.570;2023-12-07T10:12:46;45.93;;;24.00;;
19131;SDS011;9698;51.976;7.570;2023-12-07T10:15:18;47.87;;;24.27;;
19131;SDS011;9698;51.976;7.570;2023-12-07T10:17:48;48.27;;;24.13;;
19131;SDS011;9698;51.976;7.570;2023-12-07T10:20:17;46.80;;;23.70;;
19131;SDS011;9698;51.976;7.570;2023-12-07T10:22:50;46.33;;;23.57;;
19131;SDS011;9698;51.976;7.570;2023-12-07T10:25:29;42.50;;;23.83;;
19131;SDS011;9698;51.976;7.570;2023-12-07T10:27:57;45.70;;;23.93;;
19131;SDS011;9698;51.976;7.570;2023-12-07T10:30:25;45.67;;;23.53;;
19131;SDS011;9698;51.976;7.570;2023-12-07T10:32:54;52.57;;;24.77;;
19131;SDS011;9698;51.976;7.570;2023-12-07T10:35:22;47.37;;;25.50;;
19131;SDS011;9698;51.976;7.570;2023-12-07T10:37:51;47.47;;;26.40;;
19131;SDS011;9698;51.976;7.570;2023-12-07T10:40:19;47.20;;;24.53;;
19131;SDS011;9698;51.976;7.570;2023-12-07T10:42:47;47.80;;;23.00;;
19131;SDS011;9698;51.976;7.570;2023-12-07T10:45:18;49.67;;;24.53;;
19131;SDS011;9698;51.976;7.570;2023-12-07T10:47:48;46.10;;;24.40;;
19131;SDS011;9698;51.976;7.570;2023-12-07T10:50:19;48.43;;;24.30;;
19131;SDS011;9698;51.976;7.570;2023-12-07T10:52:51;46.20;;;24.20;;
19131;SDS011;9698;51.976;7.570;2023-12-07T10:55:20;45.03;;;23.43;;
19131;SDS011;9698;51.976;7.570;2023-12-07T10:57:53;40.77;;;22.90;;
19131;SDS011;9698;51.976;7.570;2023-12-07T11:00:21;44.57;;;21.83;;
19131;SDS011;9698;51.976;7.570;2023-12-07T11:03:07;43.73;;;21.80;;
19131;SDS011;9698;51.976;7.570;2023-12-07T11:05:36;44.40;;;23.43;;
19131;SDS011;9698;51.976;7.570;2023-12-07T11:08:06;43.10;;;23.83;;
19131;SDS011;9698;51.976;7.570;2023-12-07T11:10:39;43.37;;;24.60;;
19131;SDS011;9698;51.976;7.570;2023-12-07T11:13:13;46.30;;;23.40;;
19131;SDS011;9698;51.976;7.570;2023-12-07T11:15:46;39.57;;;22.63;;
19131;SDS011;9698;51.976;7.570;2023-12-07T11:18:15;42.33;;;23.50;;
19131;SDS011;9698;51.976;7.570;2023-12-07T11:20:44;44.70;;;24.13;;
19131;SDS011;9698;51.976;7.570;2023-12-07T11:23:16;41.90;;;22.80;;
19131;SDS011;9698;51.976;7.570;2023-12-07T11:25:45;42.77;;;22.40;;
19131;SDS011;9698;51.976;7.570;2023-12-07T11:28:14;41.47;;;23.77;;
19131;SDS011;9698;51.976;7.570;2023-12-07T11:30:44;40.97;;;23.53;;
19131;SDS011;9698;51.976;7.570;2023-12-07T11:33:13;36.37;;;21.43;;
19131;SDS011;9698;51.976;7.570;2023-12-07T11:38:32;37.70;;;21.53;;
19131;SDS011;9698;51.976;7.570;2023-12-07T11:41:00;39.17;;;22.90;;
19131;SDS011;9698;51.976;7.570;2023-12-07T11:43:36;38.83;;;23.47;;
19131;SDS011;9698;51.976;7.570;2023-12-07T11:46:11;39.07;;;23.27;;
19131;SDS011;9698;51.976;7.570;2023-12-07T11:48:45;37.30;;;22.03;;
19131;SDS011;9698;51.976;7.570;2023-12-07T11:51:15;37.03;;;22.67;;
19131;SDS011;9698;51.976;7.570;2023-12-07T11:53:43;40.10;;;21.83;;
19131;SDS011;9698;51.976;7.570;2023-12-07T11:56:11;37.73;;;21.57;;
19131;SDS011;9698;51.976;7.570;2023-12-07T11:58:39;35.80;;;21.27;;
19131;SDS011;9698;51.976;7.570;2023-12-07T12:01:08;33.23;;;20.30;;
19131;SDS011;9698;51.976;7.570;2023-12-07T12:03:36;34.03;;;21.33;;
19131;SDS011;9698;51.976;7.570;2023-12-07T12:06:05;35.23;;;21.77;;
19131;SDS011;9698;51.976;7.570;2023-12-07T12:08:36;33.53;;;20.57;;
19131;SDS011;9698;51.976;7.570;2023-12-07T12:11:06;32.90;;;20.37;;
19131;SDS011;9698;51.976;7.570;2023-12-07T12:13:34;34.60;;;20.53;;
19131;SDS011;9698;51.976;7.570;2023-12-07T12:16:07;30.03;;;19.03;;
19131;SDS011;9698;51.976;7.570;2023-12-07T12:18:35;36.07;;;20.73;;
19131;SDS011;9698;51.976;7.570;2023-12-07T12:21:06;36.40;;;21.90;;
19131;SDS011;9698;51.976;7.570;2023-12-07T12:23:35;37.93;;;21.73;;
19131;SDS011;9698;51.976;7.570;2023-12-07T12:26:05;36.70;;;20.17;;
19131;SDS011;9698;51.976;7.570;2023-12-07T12:28:34;32.50;;;20.27;;
19131;SDS011;9698;51.976;7.570;2023-12-07T12:31:08;30.63;;;19.10;;
19131;SDS011;9698;51.976;7.570;2023-12-07T12:33:37;34.17;;;20.77;;
19131;SDS011;9698;51.976;7.570;2023-12-07T12:36:07;34.90;;;19.93;;
19131;SDS011;9698;51.976;7.570;2023-12-07T12:38:36;33.20;;;19.67;;
19131;SDS011;9698;51.976;7.570;2023-12-07T12:41:10;31.27;;;19.07;;
19131;SDS011;9698;51.976;7.570;2023-12-07T12:43:39;34.33;;;19.47;;
19131;SDS011;9698;51.976;7.570;2023-12-07T12:46:07;32.03;;;19.90;;
19131;SDS011;9698;51.976;7.570;2023-12-07T12:48:37;35.17;;;20.07;;
19131;SDS011;9698;51.976;7.570;2023-12-07T12:51:18;32.90;;;20.37;;
19131;SDS011;9698;51.976;7.570;2023-12-07T12:53:47;30.90;;;19.73;;
19131;SDS011;9698;51.976;7.570;2023-12-07T12:56:18;30.70;;;18.97;;
19131;SDS011;9698;51.976;7.570;2023-12-07T12:58:47;32.53;;;18.93;;
19131;SDS011;9698;51.976;7.570;2023-12-07T13:01:17;32.77;;;19.47;;
19131;SDS011;9698;51.976;7.570;2023-12-07T13:03:45;30.07;;;18.67;;
19131;SDS011;9698;51.976;7.570;2023-12-07T13:06:13;32.97;;;19.60;;
19131;SDS011;9698;51.976;7.570;2023-12-07T13:08:43;31.83;;;19.50;;
19131;SDS011;9698;51.976;7.570;2023-12-07T13:11:14;30.60;;;19.40;;
19131;SDS011;9698;51.976;7.570;2023-12-07T13:13:43;31.83;;;20.07;;
19131;SDS011;9698;51.976;7.570;2023-12-07T13:16:13;34.63;;;20.73;;
19131;SDS011;9698;51.976;7.570;2023-12-07T13:18:42;31.23;;;19.40;;
19131;SDS011;9698;51.976;7.570;2023-12-07T13:21:10;29.67;;;18.70;;
19131;SDS011;9698;51.976;7.570;2023-12-07T13:23:38;34.30;;;20.10;;
19131;SDS011;9698;51.976;7.570;2023-12-07T13:26:06;31.93;;;18.70;;
19131;SDS011;9698;51.976;7.570;2023-12-07T13:28:33;28.50;;;19.53;;
19131;SDS011;9698;51.976;7.570;2023-12-07T13:31:01;32.50;;;19.53;;
19131;SDS011;9698;51.976;7.570;2023-12-07T13:33:29;32.27;;;19.30;;
19131;SDS011;9698;51.976;7.570;2023-12-07T13:36:09;30.97;;;19.00;;
19131;SDS011;9698;51.976;7.570;2023-12-07T13:38:37;37.27;;;19.73;;
19131;SDS011;9698;51.976;7.570;2023-12-07T13:41:06;31.87;;;19.53;;
19131;SDS011;9698;51.976;7.570;2023-12-07T13:43:34;27.93;;;18.67;;
19131;SDS011;9698;51.976;7.570;2023-12-07T13:46:01;30.13;;;18.57;;
19131;SDS011;9698;51.976;7.570;2023-12-07T13:48:29;30.83;;;19.53;;
19131;SDS011;9698;51.976;7.570;2023-12-07T13:50:57;31.87;;;18.83;;
19131;SDS011;9698;51.976;7.570;2023-12-07T13:53:24;31.27;;;19.03;;
19131;SDS011;9698;51.976;7.570;2023-12-07T13:55:52;29.73;;;18.60;;
19131;SDS011;9698;51.976;7.570;2023-12-07T13:58:20;35.40;;;19.77;;
19131;SDS011;9698;51.976;7.570;2023-12-07T14:00:48;30.20;;;18.90;;
19131;SDS011;9698;51.976;7.570;2023-12-07T14:03:16;35.33;;;19.90;;
19131;SDS011;9698;51.976;7.570;2023-12-07T14:05:44;28.70;;;18.37;;
19131;SDS011;9698;51.976;7.570;2023-12-07T14:08:12;33.87;;;20.60;;
19131;SDS011;9698;51.976;7.570;2023-12-07T14:10:40;30.93;;;19.03;;
19131;SDS011;9698;51.976;7.570;2023-12-07T14:13:08;35.17;;;19.43;;
19131;SDS011;9698;51.976;7.570;2023-12-07T14:15:36;28.53;;;18.47;;
19131;SDS011;9698;51.976;7.570;2023-12-07T14:18:11;31.43;;;18.60;;
19131;SDS011;9698;51.976;7.570;2023-12-07T14:20:41;33.33;;;18.97;;
19131;SDS011;9698;51.976;7.570;2023-12-07T14:23:33;32.83;;;17.97;;
19131;SDS011;9698;51.976;7.570;2023-12-07T14:26:04;32.40;;;19.07;;
19131;SDS011;9698;51.976;7.570;2023-12-07T14:28:33;34.40;;;19.67;;
19131;SDS011;9698;51.976;7.570;2023-12-07T14:31:03;31.27;;;19.30;;
19131;SDS011;9698;51.976;7.570;2023-12-07T14:33:32;33.43;;;19.17;;
19131;SDS011;9698;51.976;7.570;2023-12-07T14:36:01;34.47;;;19.40;;
19131;SDS011;9698;51.976;7.570;2023-12-07T14:38:30;35.43;;;19.20;;
19131;SDS011;9698;51.976;7.570;2023-12-07T14:40:58;34.23;;;19.30;;
19131;SDS011;9698;51.976;7.570;2023-12-07T14:43:26;35.50;;;19.07;;
19131;SDS011;9698;51.976;7.570;2023-12-07T14:45:54;34.63;;;19.23;;